sensor_id;sensor_type;location;lat;lon;timestamp;pressure;altitude;pressure_sealevel;temperature;humidity
77079;BME280;66004;55.096;38.760;2023-09-30T00:00:14;100553.13;;;14.65;68.03
77079;BME280;66004;55.096;38.760;2023-09-30T00:02:40;100562.69;;;14.60;67.94
77079;BME280;66004;55.096;38.760;2023-09-30T00:05:06;100564.25;;;14.58;67.68
77079;BME280;66004;55.096;38.760;2023-09-30T00:07:31;100566.47;;;14.52;67.87
77079;BME280;66004;55.096;38.760;2023-09-30T00:09:57;100563.84;;;14.47;68.15
77079;BME280;66004;55.096;38.760;2023-09-30T00:12:22;100560.44;;;14.41;67.92
77079;BME280;66004;55.096;38.760;2023-09-30T00:14:48;100561.13;;;14.38;68.22
77079;BME280;66004;55.096;38.760;2023-09-30T00:17:14;100557.84;;;14.36;68.00
77079;BME280;66004;55.096;38.760;2023-09-30T00:19:40;100560.19;;;14.34;68.41
77079;BME280;66004;55.096;38.760;2023-09-30T00:22:06;100562.56;;;14.32;68.34
77079;BME280;66004;55.096;38.760;2023-09-30T00:24:32;100562.09;;;14.30;68.03
77079;BME280;66004;55.096;38.760;2023-09-30T00:26:57;100547.81;;;14.27;68.53
77079;BME280;66004;55.096;38.760;2023-09-30T00:29:23;100554.28;;;14.27;68.13
77079;BME280;66004;55.096;38.760;2023-09-30T00:31:48;100542.03;;;14.23;68.19
77079;BME280;66004;55.096;38.760;2023-09-30T00:34:14;100537.06;;;14.20;68.36
77079;BME280;66004;55.096;38.760;2023-09-30T00:36:39;100543.69;;;14.24;67.94
77079;BME280;66004;55.096;38.760;2023-09-30T00:39:07;100542.72;;;14.20;67.96
77079;BME280;66004;55.096;38.760;2023-09-30T00:41:33;100535.19;;;14.12;68.22
77079;BME280;66004;55.096;38.760;2023-09-30T00:43:59;100542.50;;;14.13;67.89
77079;BME280;66004;55.096;38.760;2023-09-30T00:46:43;100538.47;;;14.14;67.89
77079;BME280;66004;55.096;38.760;2023-09-30T00:49:09;100540.84;;;14.12;67.70
77079;BME280;66004;55.096;38.760;2023-09-30T00:51:36;100548.16;;;14.13;67.64
77079;BME280;66004;55.096;38.760;2023-09-30T00:54:02;100539.19;;;14.11;68.29
77079;BME280;66004;55.096;38.760;2023-09-30T00:56:30;100539.19;;;14.11;68.30
77079;BME280;66004;55.096;38.760;2023-09-30T00:58:55;100537.53;;;14.10;68.13
77079;BME280;66004;55.096;38.760;2023-09-30T01:01:21;100526.91;;;14.07;67.97
77079;BME280;66004;55.096;38.760;2023-09-30T01:03:47;100532.56;;;14.07;68.30
77079;BME280;66004;55.096;38.760;2023-09-30T01:06:13;100548.88;;;14.10;68.21
77079;BME280;66004;55.096;38.760;2023-09-30T01:08:39;100531.63;;;14.02;67.87
77079;BME280;66004;55.096;38.760;2023-09-30T01:11:05;100530.81;;;14.02;68.21
77079;BME280;66004;55.096;38.760;2023-09-30T01:13:37;100520.06;;;13.95;68.40
77079;BME280;66004;55.096;38.760;2023-09-30T01:16:07;100530.47;;;14.04;68.03
77079;BME280;66004;55.096;38.760;2023-09-30T01:18:37;100540.72;;;14.08;67.94
77079;BME280;66004;55.096;38.760;2023-09-30T01:21:05;100542.38;;;14.09;68.18
77079;BME280;66004;55.096;38.760;2023-09-30T01:23:31;100536.34;;;14.11;68.06
77079;BME280;66004;55.096;38.760;2023-09-30T01:25:57;100528.13;;;14.06;68.45
77079;BME280;66004;55.096;38.760;2023-09-30T01:28:26;100537.06;;;14.08;68.29
77079;BME280;66004;55.096;38.760;2023-09-30T01:30:52;100542.25;;;14.06;68.74
77079;BME280;66004;55.096;38.760;2023-09-30T01:33:17;100543.78;;;14.03;68.17
77079;BME280;66004;55.096;38.760;2023-09-30T01:35:44;100543.41;;;14.05;68.78
77079;BME280;66004;55.096;38.760;2023-09-30T01:38:10;100525.03;;;13.98;68.90
77079;BME280;66004;55.096;38.760;2023-09-30T01:40:35;100517.25;;;13.95;68.36
77079;BME280;66004;55.096;38.760;2023-09-30T01:43:03;100514.41;;;13.95;68.54
77079;BME280;66004;55.096;38.760;2023-09-30T01:45:28;100520.78;;;13.92;68.93
77079;BME280;66004;55.096;38.760;2023-09-30T01:47:54;100521.72;;;13.96;68.67
77079;BME280;66004;55.096;38.760;2023-09-30T01:50:19;100521.72;;;13.96;68.87
77079;BME280;66004;55.096;38.760;2023-09-30T01:52:45;100524.34;;;14.01;69.13
77079;BME280;66004;55.096;38.760;2023-09-30T01:55:10;100525.97;;;14.02;68.75
77079;BME280;66004;55.096;38.760;2023-09-30T01:57:36;100530.69;;;13.98;68.93
77079;BME280;66004;55.096;38.760;2023-09-30T02:00:02;100532.22;;;13.96;68.59
77079;BME280;66004;55.096;38.760;2023-09-30T02:02:28;100517.84;;;13.89;68.57
77079;BME280;66004;55.096;38.760;2023-09-30T02:04:53;100523.84;;;13.87;69.07
77079;BME280;66004;55.096;38.760;2023-09-30T02:07:19;100530.19;;;13.84;68.84
77079;BME280;66004;55.096;38.760;2023-09-30T02:09:44;100521.09;;;13.78;68.99
77079;BME280;66004;55.096;38.760;2023-09-30T02:12:10;100519.47;;;13.77;69.07
77079;BME280;66004;55.096;38.760;2023-09-30T02:14:36;100518.16;;;13.75;68.96
77079;BME280;66004;55.096;38.760;2023-09-30T02:17:04;100523.47;;;13.76;69.22
77079;BME280;66004;55.096;38.760;2023-09-30T02:19:29;100521.81;;;13.75;69.56
77079;BME280;66004;55.096;38.760;2023-09-30T02:21:57;100514.63;;;13.78;69.08
77079;BME280;66004;55.096;38.760;2023-09-30T02:24:22;100514.63;;;13.78;69.13
77079;BME280;66004;55.096;38.760;2023-09-30T02:26:48;100507.34;;;13.77;69.55
77079;BME280;66004;55.096;38.760;2023-09-30T02:29:14;100512.28;;;13.80;69.22
77079;BME280;66004;55.096;38.760;2023-09-30T02:31:39;100515.44;;;13.78;69.35
77079;BME280;66004;55.096;38.760;2023-09-30T02:34:06;100517.94;;;13.80;69.02
77079;BME280;66004;55.096;38.760;2023-09-30T02:36:33;100514.63;;;13.78;69.30
77079;BME280;66004;55.096;38.760;2023-09-30T02:38:58;100505.66;;;13.76;69.47
77079;BME280;66004;55.096;38.760;2023-09-30T02:41:26;100506.63;;;13.80;69.38
77079;BME280;66004;55.096;38.760;2023-09-30T02:43:51;100514.63;;;13.78;69.78
77079;BME280;66004;55.096;38.760;2023-09-30T02:46:17;100509.91;;;13.82;69.50
77079;BME280;66004;55.096;38.760;2023-09-30T02:48:42;100508.53;;;13.88;69.36
77079;BME280;66004;55.096;38.760;2023-09-30T02:51:11;100502.16;;;13.91;69.88
77079;BME280;66004;55.096;38.760;2023-09-30T02:53:37;100502.63;;;13.93;69.77
77079;BME280;66004;55.096;38.760;2023-09-30T02:56:03;100497.44;;;13.95;69.94
77079;BME280;66004;55.096;38.760;2023-09-30T02:58:30;100512.91;;;13.98;69.96
77079;BME280;66004;55.096;38.760;2023-09-30T03:00:55;100510.53;;;14.00;69.79
77079;BME280;66004;55.096;38.760;2023-09-30T03:03:21;100504.06;;;13.99;69.99
77079;BME280;66004;55.096;38.760;2023-09-30T03:05:47;100509.22;;;13.97;69.86
77079;BME280;66004;55.096;38.760;2023-09-30T03:08:15;100509.72;;;13.99;70.13
77079;BME280;66004;55.096;38.760;2023-09-30T03:10:41;100502.41;;;13.98;69.71
77079;BME280;66004;55.096;38.760;2023-09-30T03:13:07;100496.75;;;13.98;69.99
77079;BME280;66004;55.096;38.760;2023-09-30T03:15:35;100498.41;;;13.99;70.02
77079;BME280;66004;55.096;38.760;2023-09-30T03:18:00;100496.75;;;13.98;69.85
77079;BME280;66004;55.096;38.760;2023-09-30T03:20:26;100499.22;;;14.00;69.61
77079;BME280;66004;55.096;38.760;2023-09-30T03:22:52;100491.09;;;13.98;69.61
77079;BME280;66004;55.096;38.760;2023-09-30T03:25:19;100497.56;;;13.99;69.47
77079;BME280;66004;55.096;38.760;2023-09-30T03:27:46;100488.47;;;13.93;70.17
77079;BME280;66004;55.096;38.760;2023-09-30T03:30:13;100501.00;;;14.05;69.83
77079;BME280;66004;55.096;38.760;2023-09-30T03:32:39;100499.69;;;14.02;70.01
77079;BME280;66004;55.096;38.760;2023-09-30T03:35:08;100505.00;;;14.04;69.68
77079;BME280;66004;55.096;38.760;2023-09-30T03:37:39;100501.72;;;14.01;69.63
77079;BME280;66004;55.096;38.760;2023-09-30T03:40:04;100515.38;;;13.99;70.00
77079;BME280;66004;55.096;38.760;2023-09-30T03:42:41;100516.06;;;13.96;69.71
77079;BME280;66004;55.096;38.760;2023-09-30T03:45:11;100511.09;;;13.93;69.84
77079;BME280;66004;55.096;38.760;2023-09-30T03:47:40;100515.13;;;13.92;69.60
77079;BME280;66004;55.096;38.760;2023-09-30T03:50:06;100519.13;;;13.91;69.77
77079;BME280;66004;55.096;38.760;2023-09-30T03:52:39;100516.31;;;13.91;69.43
77079;BME280;66004;55.096;38.760;2023-09-30T03:55:12;100503.56;;;13.85;69.59
77079;BME280;66004;55.096;38.760;2023-09-30T03:57:37;100519.84;;;13.88;69.37
77079;BME280;66004;55.096;38.760;2023-09-30T04:00:06;100518.19;;;13.87;69.59
77079;BME280;66004;55.096;38.760;2023-09-30T04:02:32;100520.06;;;13.95;69.66
77079;BME280;66004;55.096;38.760;2023-09-30T04:04:59;100527.41;;;13.96;69.45
77079;BME280;66004;55.096;38.760;2023-09-30T04:07:25;100525.03;;;13.98;69.46
77079;BME280;66004;55.096;38.760;2023-09-30T04:09:55;100517.03;;;14.00;69.40
77079;BME280;66004;55.096;38.760;2023-09-30T04:12:21;100515.47;;;14.03;69.31
77079;BME280;66004;55.096;38.760;2023-09-30T04:14:49;100511.34;;;14.00;69.46
77079;BME280;66004;55.096;38.760;2023-09-30T04:17:14;100497.56;;;13.99;69.35
77079;BME280;66004;55.096;38.760;2023-09-30T04:19:40;100522.19;;;14.11;69.08
77079;BME280;66004;55.096;38.760;2023-09-30T04:22:06;100516.78;;;14.18;68.89
77079;BME280;66004;55.096;38.760;2023-09-30T04:24:31;100509.50;;;14.17;68.68
77079;BME280;66004;55.096;38.760;2023-09-30T04:26:56;100512.06;;;14.22;68.88
77079;BME280;66004;55.096;38.760;2023-09-30T04:29:29;100507.50;;;14.30;68.80
77079;BME280;66004;55.096;38.760;2023-09-30T04:31:57;100510.06;;;14.35;68.69
77079;BME280;66004;55.096;38.760;2023-09-30T04:34:23;100515.03;;;14.38;68.54
77079;BME280;66004;55.096;38.760;2023-09-30T04:36:49;100511.69;;;14.48;68.31
77079;BME280;66004;55.096;38.760;2023-09-30T04:39:14;100508.28;;;14.55;68.12
77079;BME280;66004;55.096;38.760;2023-09-30T04:41:41;100508.56;;;14.62;68.50
77079;BME280;66004;55.096;38.760;2023-09-30T04:44:09;100516.06;;;14.70;67.87
77079;BME280;66004;55.096;38.760;2023-09-30T04:46:36;100507.09;;;14.81;67.84
77079;BME280;66004;55.096;38.760;2023-09-30T04:49:07;100510.06;;;15.12;67.13
77079;BME280;66004;55.096;38.760;2023-09-30T04:51:33;100509.66;;;15.54;66.30
77079;BME280;66004;55.096;38.760;2023-09-30T04:53:59;100511.25;;;15.84;65.51
77079;BME280;66004;55.096;38.760;2023-09-30T04:56:25;100506.78;;;15.99;64.92
77079;BME280;66004;55.096;38.760;2023-09-30T04:58:50;100503.69;;;16.04;64.88
77079;BME280;66004;55.096;38.760;2023-09-30T05:01:16;100512.09;;;16.16;64.33
77079;BME280;66004;55.096;38.760;2023-09-30T05:03:44;100514.75;;;16.25;64.24
77079;BME280;66004;55.096;38.760;2023-09-30T05:06:09;100507.13;;;16.45;63.68
77079;BME280;66004;55.096;38.760;2023-09-30T05:08:35;100501.53;;;16.48;63.72
77079;BME280;66004;55.096;38.760;2023-09-30T05:11:01;100503.00;;;16.42;63.91
77079;BME280;66004;55.096;38.760;2023-09-30T05:13:26;100513.53;;;16.42;64.17
77079;BME280;66004;55.096;38.760;2023-09-30T05:15:52;100505.47;;;16.44;64.70
77079;BME280;66004;55.096;38.760;2023-09-30T05:18:18;100504.16;;;16.57;63.94
77079;BME280;66004;55.096;38.760;2023-09-30T05:20:44;100494.00;;;16.56;63.96
77079;BME280;66004;55.096;38.760;2023-09-30T05:23:10;100497.75;;;16.60;64.12
77079;BME280;66004;55.096;38.760;2023-09-30T05:25:39;100498.66;;;16.64;64.02
77079;BME280;66004;55.096;38.760;2023-09-30T05:28:05;100500.47;;;16.72;63.97
77079;BME280;66004;55.096;38.760;2023-09-30T05:30:34;100499.28;;;16.73;63.84
77079;BME280;66004;55.096;38.760;2023-09-30T05:33:00;100515.13;;;16.74;64.33
77079;BME280;66004;55.096;38.760;2023-09-30T05:35:26;100506.13;;;16.72;64.18
77079;BME280;66004;55.096;38.760;2023-09-30T05:37:53;100509.25;;;16.83;64.11
77079;BME280;66004;55.096;38.760;2023-09-30T05:40:20;100506.66;;;16.94;64.20
77079;BME280;66004;55.096;38.760;2023-09-30T05:42:47;100497.00;;;16.99;64.10
77079;BME280;66004;55.096;38.760;2023-09-30T05:45:16;100501.44;;;17.16;63.68
77079;BME280;66004;55.096;38.760;2023-09-30T05:47:42;100497.72;;;17.31;63.34
77079;BME280;66004;55.096;38.760;2023-09-30T05:50:09;100501.28;;;17.70;62.58
77079;BME280;66004;55.096;38.760;2023-09-30T05:52:40;100506.69;;;17.95;62.21
77079;BME280;66004;55.096;38.760;2023-09-30T05:55:06;100511.41;;;18.11;61.88
77079;BME280;66004;55.096;38.760;2023-09-30T05:57:32;100504.50;;;18.35;61.44
77079;BME280;66004;55.096;38.760;2023-09-30T05:59:58;100492.72;;;18.63;60.60
77079;BME280;66004;55.096;38.760;2023-09-30T06:02:23;100501.44;;;19.04;59.41
77079;BME280;66004;55.096;38.760;2023-09-30T06:04:49;100493.66;;;19.31;59.02
77079;BME280;66004;55.096;38.760;2023-09-30T06:07:16;100493.03;;;19.49;58.23
77079;BME280;66004;55.096;38.760;2023-09-30T06:09:43;100503.81;;;19.66;58.25
77079;BME280;66004;55.096;38.760;2023-09-30T06:12:08;100496.59;;;19.76;57.34
77079;BME280;66004;55.096;38.760;2023-09-30T06:14:37;100490.59;;;19.84;57.43
77079;BME280;66004;55.096;38.760;2023-09-30T06:17:02;100498.38;;;19.88;57.41
77079;BME280;66004;55.096;38.760;2023-09-30T06:19:28;100505.00;;;19.99;57.44
77079;BME280;66004;55.096;38.760;2023-09-30T06:21:54;100495.28;;;20.07;57.06
77079;BME280;66004;55.096;38.760;2023-09-30T06:24:19;100497.72;;;20.05;57.41
77079;BME280;66004;55.096;38.760;2023-09-30T06:26:45;100498.41;;;19.91;57.48
77079;BME280;66004;55.096;38.760;2023-09-30T06:29:11;100493.78;;;19.79;57.56
77079;BME280;66004;55.096;38.760;2023-09-30T06:31:37;100491.63;;;19.69;58.08
77079;BME280;66004;55.096;38.760;2023-09-30T06:34:03;100481.38;;;19.61;58.00
77079;BME280;66004;55.096;38.760;2023-09-30T06:36:29;100481.41;;;19.68;57.95
77079;BME280;66004;55.096;38.760;2023-09-30T06:38:55;100482.69;;;19.71;57.68
77079;BME280;66004;55.096;38.760;2023-09-30T06:41:20;100480.31;;;19.76;57.73
77079;BME280;66004;55.096;38.760;2023-09-30T06:43:46;100475.47;;;19.80;57.53
77079;BME280;66004;55.096;38.760;2023-09-30T06:46:12;100472.22;;;19.82;57.74
77079;BME280;66004;55.096;38.760;2023-09-30T06:48:39;100479.25;;;19.92;57.42
77079;BME280;66004;55.096;38.760;2023-09-30T06:51:07;100477.22;;;19.96;57.63
77079;BME280;66004;55.096;38.760;2023-09-30T06:53:33;100483.78;;;20.00;57.55
77079;BME280;66004;55.096;38.760;2023-09-30T06:55:59;100471.94;;;19.98;57.77
77079;BME280;66004;55.096;38.760;2023-09-30T06:58:24;100478.88;;;19.97;57.87
77079;BME280;66004;55.096;38.760;2023-09-30T07:00:51;100479.31;;;19.99;57.68
77079;BME280;66004;55.096;38.760;2023-09-30T07:03:17;100470.31;;;19.97;57.67
77079;BME280;66004;55.096;38.760;2023-09-30T07:05:43;100474.81;;;19.98;57.78
77079;BME280;66004;55.096;38.760;2023-09-30T07:08:09;100469.09;;;19.98;58.26
77079;BME280;66004;55.096;38.760;2023-09-30T07:10:35;100475.66;;;20.02;58.04
77079;BME280;66004;55.096;38.760;2023-09-30T07:13:04;100472.44;;;20.07;57.68
77079;BME280;66004;55.096;38.760;2023-09-30T07:15:29;100463.50;;;20.12;57.57
77079;BME280;66004;55.096;38.760;2023-09-30T07:17:55;100463.56;;;20.19;57.29
77079;BME280;66004;55.096;38.760;2023-09-30T07:20:21;100448.06;;;20.20;57.49
77079;BME280;66004;55.096;38.760;2023-09-30T07:22:48;100459.59;;;20.35;57.38
77079;BME280;66004;55.096;38.760;2023-09-30T07:25:14;100462.97;;;20.48;57.35
77079;BME280;66004;55.096;38.760;2023-09-30T07:27:43;100471.16;;;20.56;56.85
77079;BME280;66004;55.096;38.760;2023-09-30T07:30:10;100460.66;;;20.68;55.92
77079;BME280;66004;55.096;38.760;2023-09-30T07:32:37;100458.69;;;20.79;55.11
77079;BME280;66004;55.096;38.760;2023-09-30T07:35:03;100450.16;;;20.90;55.01
77079;BME280;66004;55.096;38.760;2023-09-30T07:37:29;100453.50;;;21.03;53.66
77079;BME280;66004;55.096;38.760;2023-09-30T07:39:54;100450.25;;;21.15;53.81
77079;BME280;66004;55.096;38.760;2023-09-30T07:42:20;100450.28;;;21.22;53.81
77079;BME280;66004;55.096;38.760;2023-09-30T07:44:47;100447.06;;;21.31;53.43
77079;BME280;66004;55.096;38.760;2023-09-30T07:47:14;100453.22;;;21.44;52.78
77079;BME280;66004;55.096;38.760;2023-09-30T07:49:40;100456.97;;;21.55;51.49
77079;BME280;66004;55.096;38.760;2023-09-30T07:52:05;100453.28;;;21.65;51.38
77079;BME280;66004;55.096;38.760;2023-09-30T07:54:31;100450.44;;;21.72;51.36
77079;BME280;66004;55.096;38.760;2023-09-30T07:56:56;100452.91;;;21.85;51.02
77079;BME280;66004;55.096;38.760;2023-09-30T07:59:22;100450.47;;;21.94;51.19
77079;BME280;66004;55.096;38.760;2023-09-30T08:01:48;100445.97;;;22.00;50.24
77079;BME280;66004;55.096;38.760;2023-09-30T08:04:14;100439.81;;;22.09;50.59
77079;BME280;66004;55.096;38.760;2023-09-30T08:06:39;100435.75;;;22.17;50.56
77079;BME280;66004;55.096;38.760;2023-09-30T08:09:05;100434.91;;;22.24;50.06
77079;BME280;66004;55.096;38.760;2023-09-30T08:11:36;100424.69;;;22.30;50.67
77079;BME280;66004;55.096;38.760;2023-09-30T08:14:03;100429.19;;;22.38;50.09
77079;BME280;66004;55.096;38.760;2023-09-30T08:16:32;100426.72;;;22.47;50.37
77079;BME280;66004;55.096;38.760;2023-09-30T08:18:58;100425.06;;;22.53;49.70
77079;BME280;66004;55.096;38.760;2023-09-30T08:21:24;100424.25;;;22.57;50.20
77079;BME280;66004;55.096;38.760;2023-09-30T08:23:51;100424.22;;;22.60;49.73
77079;BME280;66004;55.096;38.760;2023-09-30T08:26:16;100429.13;;;22.67;48.76
77079;BME280;66004;55.096;38.760;2023-09-30T08:28:41;100426.66;;;22.69;49.22
77079;BME280;66004;55.096;38.760;2023-09-30T08:31:07;100425.78;;;22.79;49.26
77079;BME280;66004;55.096;38.760;2023-09-30T08:33:34;100423.34;;;22.81;49.28
77079;BME280;66004;55.096;38.760;2023-09-30T08:36:06;100422.50;;;22.84;48.49
77079;BME280;66004;55.096;38.760;2023-09-30T08:38:35;100417.56;;;22.88;48.47
77079;BME280;66004;55.096;38.760;2023-09-30T08:41:00;100414.28;;;22.93;48.57
77079;BME280;66004;55.096;38.760;2023-09-30T08:43:28;100418.34;;;23.00;47.63
77079;BME280;66004;55.096;38.760;2023-09-30T08:45:56;100417.94;;;23.05;47.67
77079;BME280;66004;55.096;38.760;2023-09-30T08:48:23;100415.88;;;23.09;47.84
77079;BME280;66004;55.096;38.760;2023-09-30T08:50:51;100412.97;;;23.16;48.37
77079;BME280;66004;55.096;38.760;2023-09-30T08:53:18;100419.50;;;23.20;47.66
77079;BME280;66004;55.096;38.760;2023-09-30T08:55:46;100412.94;;;23.23;46.76
77079;BME280;66004;55.096;38.760;2023-09-30T08:58:14;100414.13;;;23.29;47.05
77079;BME280;66004;55.096;38.760;2023-09-30T09:00:42;100404.28;;;23.30;46.63
77079;BME280;66004;55.096;38.760;2023-09-30T09:03:08;100407.53;;;23.40;46.45
77079;BME280;66004;55.096;38.760;2023-09-30T09:05:34;100416.94;;;23.40;46.11
77079;BME280;66004;55.096;38.760;2023-09-30T09:07:59;100407.91;;;23.42;45.78
77079;BME280;66004;55.096;38.760;2023-09-30T09:10:25;100406.66;;;23.46;46.31
77079;BME280;66004;55.096;38.760;2023-09-30T09:12:58;100405.78;;;23.53;45.89
77079;BME280;66004;55.096;38.760;2023-09-30T09:15:26;100404.09;;;23.59;45.56
77079;BME280;66004;55.096;38.760;2023-09-30T09:17:53;100397.50;;;23.66;46.08
77079;BME280;66004;55.096;38.760;2023-09-30T09:20:21;100402.34;;;23.73;45.78
77079;BME280;66004;55.096;38.760;2023-09-30T09:22:52;100399.03;;;23.78;45.07
77079;BME280;66004;55.096;38.760;2023-09-30T09:25:19;100402.34;;;23.80;45.77
77079;BME280;66004;55.096;38.760;2023-09-30T09:27:44;100405.59;;;23.82;45.59
77079;BME280;66004;55.096;38.760;2023-09-30T09:30:26;100393.28;;;23.85;45.30
77079;BME280;66004;55.096;38.760;2023-09-30T09:33:05;100390.75;;;23.94;45.11
77079;BME280;66004;55.096;38.760;2023-09-30T09:35:34;100394.41;;;23.98;44.83
77079;BME280;66004;55.096;38.760;2023-09-30T09:38:03;100389.81;;;24.04;44.96
77079;BME280;66004;55.096;38.760;2023-09-30T09:40:33;100393.00;;;24.14;44.15
77079;BME280;66004;55.096;38.760;2023-09-30T09:43:00;100381.44;;;24.21;44.21
77079;BME280;66004;55.096;38.760;2023-09-30T09:45:29;100375.78;;;24.14;44.56
77079;BME280;66004;55.096;38.760;2023-09-30T09:47:57;100383.13;;;24.15;44.52
77079;BME280;66004;55.096;38.760;2023-09-30T09:50:23;100374.09;;;24.16;44.11
77079;BME280;66004;55.096;38.760;2023-09-30T09:52:53;100381.44;;;24.21;43.55
77079;BME280;66004;55.096;38.760;2023-09-30T09:55:22;100368.75;;;24.15;43.23
77079;BME280;66004;55.096;38.760;2023-09-30T09:57:49;100367.50;;;24.19;44.00
77079;BME280;66004;55.096;38.760;2023-09-30T10:00:16;100375.63;;;24.28;43.79
77079;BME280;66004;55.096;38.760;2023-09-30T10:02:47;100359.94;;;24.36;43.39
77079;BME280;66004;55.096;38.760;2023-09-30T10:05:13;100374.59;;;24.49;43.37
77079;BME280;66004;55.096;38.760;2023-09-30T10:08:00;100376.56;;;24.56;43.09
77079;BME280;66004;55.096;38.760;2023-09-30T10:10:27;100365.53;;;24.51;43.10
77079;BME280;66004;55.096;38.760;2023-09-30T10:12:53;100370.44;;;24.50;43.65
77079;BME280;66004;55.096;38.760;2023-09-30T10:18:00;100367.22;;;24.44;43.50
77079;BME280;66004;55.096;38.760;2023-09-30T10:20:28;100369.72;;;24.42;43.44
77079;BME280;66004;55.096;38.760;2023-09-30T10:23:28;100362.34;;;24.41;43.17
77079;BME280;66004;55.096;38.760;2023-09-30T10:26:26;100359.00;;;24.43;42.53
77079;BME280;66004;55.096;38.760;2023-09-30T10:28:51;100360.69;;;24.40;43.24
77079;BME280;66004;55.096;38.760;2023-09-30T10:31:21;100367.28;;;24.37;42.86
77079;BME280;66004;55.096;38.760;2023-09-30T10:36:40;100357.50;;;24.31;43.13
77079;BME280;66004;55.096;38.760;2023-09-30T10:39:11;100357.50;;;24.31;42.38
77079;BME280;66004;55.096;38.760;2023-09-30T10:49:46;100328.75;;;24.31;42.35
77079;BME280;66004;55.096;38.760;2023-09-30T10:52:21;100333.66;;;24.34;42.45
77079;BME280;66004;55.096;38.760;2023-09-30T10:54:49;100335.78;;;24.30;42.54
77079;BME280;66004;55.096;38.760;2023-09-30T10:57:26;100329.56;;;24.32;42.61
77079;BME280;66004;55.096;38.760;2023-09-30T11:00:11;100325.50;;;24.29;42.43
77079;BME280;66004;55.096;38.760;2023-09-30T11:02:50;100318.88;;;24.36;42.51
77079;BME280;66004;55.096;38.760;2023-09-30T11:05:18;100319.66;;;24.36;42.04
77079;BME280;66004;55.096;38.760;2023-09-30T11:07:48;100317.59;;;24.37;42.38
77079;BME280;66004;55.096;38.760;2023-09-30T11:10:19;100315.16;;;24.35;42.06
77079;BME280;66004;55.096;38.760;2023-09-30T11:12:58;100308.16;;;24.36;41.62
77079;BME280;66004;55.096;38.760;2023-09-30T11:15:24;100305.75;;;24.31;41.49
77079;BME280;66004;55.096;38.760;2023-09-30T11:17:52;100304.91;;;24.34;41.67
77079;BME280;66004;55.096;38.760;2023-09-30T11:20:17;100302.03;;;24.34;41.67
77079;BME280;66004;55.096;38.760;2023-09-30T11:22:44;100286.50;;;24.28;41.51
77079;BME280;66004;55.096;38.760;2023-09-30T11:25:19;100290.16;;;24.32;41.85
77079;BME280;66004;55.096;38.760;2023-09-30T11:27:45;100294.94;;;24.42;41.64
77079;BME280;66004;55.096;38.760;2023-09-30T11:30:12;100300.63;;;24.49;41.82
77079;BME280;66004;55.096;38.760;2023-09-30T11:32:38;100293.22;;;24.52;41.70
77079;BME280;66004;55.096;38.760;2023-09-30T11:35:09;100293.97;;;24.56;41.68
77079;BME280;66004;55.096;38.760;2023-09-30T11:37:35;100273.50;;;24.51;41.57
77079;BME280;66004;55.096;38.760;2023-09-30T11:40:17;100284.44;;;24.63;41.17
77079;BME280;66004;55.096;38.760;2023-09-30T11:43:10;100281.63;;;24.59;39.99
77079;BME280;66004;55.096;38.760;2023-09-30T11:45:37;100282.03;;;24.58;39.86
77079;BME280;66004;55.096;38.760;2023-09-30T11:48:19;100271.78;;;24.57;40.36
77079;BME280;66004;55.096;38.760;2023-09-30T11:50:48;100276.66;;;24.60;40.32
77079;BME280;66004;55.096;38.760;2023-09-30T11:53:17;100268.50;;;24.58;39.93
77079;BME280;66004;55.096;38.760;2023-09-30T11:55:43;100270.16;;;24.56;39.80
77079;BME280;66004;55.096;38.760;2023-09-30T11:58:09;100275.91;;;24.56;39.89
77079;BME280;66004;55.096;38.760;2023-09-30T12:00:41;100265.66;;;24.55;39.69
77079;BME280;66004;55.096;38.760;2023-09-30T12:03:07;100272.66;;;24.54;40.21
77079;BME280;66004;55.096;38.760;2023-09-30T12:05:32;100269.78;;;24.54;40.11
77079;BME280;66004;55.096;38.760;2023-09-30T12:07:57;100260.34;;;24.53;39.96
77079;BME280;66004;55.096;38.760;2023-09-30T12:10:23;100255.38;;;24.54;39.75
77079;BME280;66004;55.096;38.760;2023-09-30T12:12:48;100254.59;;;24.53;39.79
77079;BME280;66004;55.096;38.760;2023-09-30T12:15:14;100244.31;;;24.48;39.15
77079;BME280;66004;55.096;38.760;2023-09-30T12:17:40;100261.81;;;24.65;39.43
77079;BME280;66004;55.096;38.760;2023-09-30T12:20:06;100249.84;;;24.70;39.21
77079;BME280;66004;55.096;38.760;2023-09-30T12:22:32;100263.34;;;24.73;38.47
77079;BME280;66004;55.096;38.760;2023-09-30T12:24:58;100256.72;;;24.76;38.80
77079;BME280;66004;55.096;38.760;2023-09-30T12:27:23;100248.09;;;24.76;38.68
77079;BME280;66004;55.096;38.760;2023-09-30T12:29:50;100249.75;;;24.77;38.47
77079;BME280;66004;55.096;38.760;2023-09-30T12:32:15;100236.69;;;24.69;38.62
77079;BME280;66004;55.096;38.760;2023-09-30T12:34:41;100244.47;;;24.72;38.69
77079;BME280;66004;55.096;38.760;2023-09-30T12:37:06;100235.44;;;24.70;38.51
77079;BME280;66004;55.096;38.760;2023-09-30T12:39:32;100236.69;;;24.69;38.58
77079;BME280;66004;55.096;38.760;2023-09-30T12:41:58;100233.00;;;24.68;38.96
77079;BME280;66004;55.096;38.760;2023-09-30T12:44:24;100236.69;;;24.69;38.30
77079;BME280;66004;55.096;38.760;2023-09-30T12:46:49;100225.16;;;24.69;38.87
77079;BME280;66004;55.096;38.760;2023-09-30T12:49:15;100229.69;;;24.70;39.09
77079;BME280;66004;55.096;38.760;2023-09-30T12:51:40;100219.03;;;24.67;38.82
77079;BME280;66004;55.096;38.760;2023-09-30T12:54:06;100218.28;;;24.63;39.18